sensor_id;sensor_type;location;lat;lon;timestamp;P1;durP1;ratioP1;P2;durP2;ratioP2
8978;SDS011;4524;51.364;5.448;2023-03-23T00:01:30;3.47;;;3.00;;
8978;SDS011;4524;51.364;5.448;2023-03-23T00:04:02;5.50;;;3.07;;
8978;SDS011;4524;51.364;5.448;2023-03-23T00:06:29;5.07;;;3.47;;
8978;SDS011;4524;51.364;5.448;2023-03-23T00:08:59;3.83;;;2.97;;
8978;SDS011;4524;51.364;5.448;2023-03-23T00:11:28;4.17;;;3.10;;
8978;SDS011;4524;51.364;5.448;2023-03-23T00:13:58;3.13;;;2.70;;
8978;SDS011;4524;51.364;5.448;2023-03-23T00:16:44;3.90;;;2.70;;
8978;SDS011;4524;51.364;5.448;2023-03-23T00:19:12;4.63;;;2.87;;
8978;SDS011;4524;51.364;5.448;2023-03-23T00:21:40;5.43;;;3.13;;
8978;SDS011;4524;51.364;5.448;2023-03-23T00:24:10;4.03;;;3.00;;
8978;SDS011;4524;51.364;5.448;2023-03-23T00:26:38;5.70;;;3.10;;
8978;SDS011;4524;51.364;5.448;2023-03-23T00:29:07;3.60;;;2.90;;
8978;SDS011;4524;51.364;5.448;2023-03-23T00:31:38;3.43;;;3.00;;
8978;SDS011;4524;51.364;5.448;2023-03-23T00:34:06;5.43;;;2.97;;
8978;SDS011;4524;51.364;5.448;2023-03-23T00:36:33;3.57;;;3.20;;
8978;SDS011;4524;51.364;5.448;2023-03-23T00:39:10;3.13;;;2.83;;
8978;SDS011;4524;51.364;5.448;2023-03-23T00:41:37;3.40;;;2.77;;
8978;SDS011;4524;51.364;5.448;2023-03-23T00:44:04;3.47;;;2.60;;
8978;SDS011;4524;51.364;5.448;2023-03-23T00:46:33;4.10;;;3.07;;
8978;SDS011;4524;51.364;5.448;2023-03-23T00:49:10;3.30;;;2.53;;
8978;SDS011;4524;51.364;5.448;2023-03-23T00:51:38;3.70;;;3.00;;
8978;SDS011;4524;51.364;5.448;2023-03-23T00:54:05;4.03;;;3.00;;
8978;SDS011;4524;51.364;5.448;2023-03-23T00:56:34;3.20;;;2.73;;
8978;SDS011;4524;51.364;5.448;2023-03-23T00:59:02;4.70;;;3.03;;
8978;SDS011;4524;51.364;5.448;2023-03-23T01:01:29;3.73;;;3.10;;
8978;SDS011;4524;51.364;5.448;2023-03-23T01:03:57;5.10;;;2.80;;
8978;SDS011;4524;51.364;5.448;2023-03-23T01:06:29;3.27;;;2.97;;
8978;SDS011;4524;51.364;5.448;2023-03-23T01:08:57;3.97;;;3.10;;
8978;SDS011;4524;51.364;5.448;2023-03-23T01:11:26;2.90;;;2.60;;
8978;SDS011;4524;51.364;5.448;2023-03-23T01:13:54;4.17;;;2.77;;
8978;SDS011;4524;51.364;5.448;2023-03-23T01:16:21;3.87;;;3.13;;
8978;SDS011;4524;51.364;5.448;2023-03-23T01:18:48;3.10;;;2.80;;
8978;SDS011;4524;51.364;5.448;2023-03-23T01:21:16;3.90;;;2.93;;
8978;SDS011;4524;51.364;5.448;2023-03-23T01:23:45;3.47;;;3.13;;
8978;SDS011;4524;51.364;5.448;2023-03-23T01:26:13;3.90;;;3.10;;
8978;SDS011;4524;51.364;5.448;2023-03-23T01:28:42;5.57;;;3.57;;
8978;SDS011;4524;51.364;5.448;2023-03-23T01:31:11;3.93;;;3.20;;
8978;SDS011;4524;51.364;5.448;2023-03-23T01:33:40;6.97;;;3.13;;
8978;SDS011;4524;51.364;5.448;2023-03-23T01:36:10;3.57;;;3.13;;
8978;SDS011;4524;51.364;5.448;2023-03-23T01:38:38;9.27;;;3.10;;
8978;SDS011;4524;51.364;5.448;2023-03-23T01:41:05;4.57;;;3.37;;
8978;SDS011;4524;51.364;5.448;2023-03-23T01:43:32;4.20;;;3.13;;
8978;SDS011;4524;51.364;5.448;2023-03-23T01:46:00;3.30;;;3.00;;
8978;SDS011;4524;51.364;5.448;2023-03-23T01:48:29;4.13;;;2.93;;
8978;SDS011;4524;51.364;5.448;2023-03-23T01:50:59;5.27;;;3.13;;
8978;SDS011;4524;51.364;5.448;2023-03-23T01:53:30;4.83;;;3.40;;
8978;SDS011;4524;51.364;5.448;2023-03-23T01:56:01;3.87;;;3.00;;
8978;SDS011;4524;51.364;5.448;2023-03-23T01:58:30;3.27;;;2.87;;
8978;SDS011;4524;51.364;5.448;2023-03-23T02:01:00;4.27;;;3.40;;
8978;SDS011;4524;51.364;5.448;2023-03-23T02:03:31;4.60;;;3.03;;
8978;SDS011;4524;51.364;5.448;2023-03-23T02:06:00;3.37;;;3.07;;
8978;SDS011;4524;51.364;5.448;2023-03-23T02:08:36;4.87;;;3.07;;
8978;SDS011;4524;51.364;5.448;2023-03-23T02:11:11;3.90;;;3.10;;
8978;SDS011;4524;51.364;5.448;2023-03-23T02:13:39;3.73;;;3.07;;
8978;SDS011;4524;51.364;5.448;2023-03-23T02:16:07;3.70;;;2.97;;
8978;SDS011;4524;51.364;5.448;2023-03-23T02:18:45;3.67;;;3.13;;
8978;SDS011;4524;51.364;5.448;2023-03-23T02:21:52;4.10;;;2.97;;
8978;SDS011;4524;51.364;5.448;2023-03-23T02:24:48;4.00;;;2.80;;
8978;SDS011;4524;51.364;5.448;2023-03-23T02:27:26;5.10;;;2.90;;
8978;SDS011;4524;51.364;5.448;2023-03-23T02:33:34;4.33;;;2.70;;
8978;SDS011;4524;51.364;5.448;2023-03-23T02:36:05;3.27;;;2.97;;
8978;SDS011;4524;51.364;5.448;2023-03-23T02:38:44;3.27;;;2.97;;
8978;SDS011;4524;51.364;5.448;2023-03-23T02:41:18;4.50;;;3.30;;
8978;SDS011;4524;51.364;5.448;2023-03-23T02:43:48;4.17;;;3.47;;
8978;SDS011;4524;51.364;5.448;2023-03-23T02:46:16;4.80;;;3.33;;
8978;SDS011;4524;51.364;5.448;2023-03-23T02:48:47;4.40;;;3.40;;
8978;SDS011;4524;51.364;5.448;2023-03-23T02:51:16;4.07;;;2.90;;
8978;SDS011;4524;51.364;5.448;2023-03-23T02:53:46;3.80;;;3.40;;
8978;SDS011;4524;51.364;5.448;2023-03-23T02:56:17;4.77;;;3.50;;
8978;SDS011;4524;51.364;5.448;2023-03-23T02:58:45;3.87;;;3.40;;
8978;SDS011;4524;51.364;5.448;2023-03-23T03:01:44;3.67;;;3.37;;
8978;SDS011;4524;51.364;5.448;2023-03-23T03:04:16;3.87;;;3.40;;
8978;SDS011;4524;51.364;5.448;2023-03-23T03:06:46;3.50;;;3.20;;
8978;SDS011;4524;51.364;5.448;2023-03-23T03:09:25;3.97;;;3.40;;
8978;SDS011;4524;51.364;5.448;2023-03-23T03:11:58;3.97;;;2.97;;
8978;SDS011;4524;51.364;5.448;2023-03-23T03:14:31;4.00;;;3.40;;
8978;SDS011;4524;51.364;5.448;2023-03-23T03:17:03;5.07;;;3.30;;
8978;SDS011;4524;51.364;5.448;2023-03-23T03:19:37;5.03;;;3.13;;
8978;SDS011;4524;51.364;5.448;2023-03-23T03:22:08;4.87;;;3.40;;
8978;SDS011;4524;51.364;5.448;2023-03-23T03:24:38;4.00;;;3.57;;
8978;SDS011;4524;51.364;5.448;2023-03-23T03:27:10;4.90;;;3.20;;
8978;SDS011;4524;51.364;5.448;2023-03-23T03:29:44;3.63;;;3.20;;
8978;SDS011;4524;51.364;5.448;2023-03-23T03:32:18;5.33;;;3.30;;
8978;SDS011;4524;51.364;5.448;2023-03-23T03:34:51;4.10;;;3.00;;
8978;SDS011;4524;51.364;5.448;2023-03-23T03:37:19;4.13;;;3.17;;
8978;SDS011;4524;51.364;5.448;2023-03-23T03:39:48;6.17;;;3.07;;
8978;SDS011;4524;51.364;5.448;2023-03-23T03:42:16;3.23;;;2.93;;
8978;SDS011;4524;51.364;5.448;2023-03-23T03:44:43;3.77;;;2.90;;
8978;SDS011;4524;51.364;5.448;2023-03-23T03:47:10;5.93;;;3.10;;
8978;SDS011;4524;51.364;5.448;2023-03-23T03:49:37;3.67;;;2.60;;
8978;SDS011;4524;51.364;5.448;2023-03-23T03:52:05;4.50;;;3.13;;
8978;SDS011;4524;51.364;5.448;2023-03-23T03:54:39;4.43;;;2.60;;
8978;SDS011;4524;51.364;5.448;2023-03-23T03:57:06;4.97;;;2.50;;
8978;SDS011;4524;51.364;5.448;2023-03-23T04:00:07;5.10;;;2.50;;
8978;SDS011;4524;51.364;5.448;2023-03-23T04:02:39;5.33;;;2.73;;
8978;SDS011;4524;51.364;5.448;2023-03-23T04:05:08;3.73;;;2.57;;
8978;SDS011;4524;51.364;5.448;2023-03-23T04:07:39;5.03;;;2.50;;
8978;SDS011;4524;51.364;5.448;2023-03-23T04:10:08;8.30;;;2.70;;
8978;SDS011;4524;51.364;5.448;2023-03-23T04:12:36;4.40;;;2.23;;
8978;SDS011;4524;51.364;5.448;2023-03-23T04:15:29;4.43;;;2.40;;
8978;SDS011;4524;51.364;5.448;2023-03-23T04:17:56;5.47;;;2.30;;
8978;SDS011;4524;51.364;5.448;2023-03-23T04:20:24;4.80;;;2.40;;
8978;SDS011;4524;51.364;5.448;2023-03-23T04:22:53;3.97;;;2.20;;
8978;SDS011;4524;51.364;5.448;2023-03-23T04:25:23;4.93;;;2.30;;
8978;SDS011;4524;51.364;5.448;2023-03-23T04:27:52;6.60;;;2.23;;
8978;SDS011;4524;51.364;5.448;2023-03-23T04:30:24;6.07;;;2.37;;
8978;SDS011;4524;51.364;5.448;2023-03-23T04:33:06;3.30;;;2.20;;
8978;SDS011;4524;51.364;5.448;2023-03-23T04:35:34;3.83;;;2.00;;
8978;SDS011;4524;51.364;5.448;2023-03-23T04:38:16;4.37;;;2.10;;
8978;SDS011;4524;51.364;5.448;2023-03-23T04:40:47;5.33;;;2.33;;
8978;SDS011;4524;51.364;5.448;2023-03-23T04:43:36;4.47;;;2.00;;
8978;SDS011;4524;51.364;5.448;2023-03-23T04:46:26;4.77;;;2.10;;
8978;SDS011;4524;51.364;5.448;2023-03-23T04:48:58;4.30;;;2.30;;
8978;SDS011;4524;51.364;5.448;2023-03-23T04:51:30;4.10;;;1.90;;
8978;SDS011;4524;51.364;5.448;2023-03-23T04:54:10;5.73;;;2.50;;
8978;SDS011;4524;51.364;5.448;2023-03-23T04:56:39;3.73;;;2.20;;
8978;SDS011;4524;51.364;5.448;2023-03-23T04:59:11;6.53;;;2.47;;
8978;SDS011;4524;51.364;5.448;2023-03-23T05:02:06;7.03;;;2.40;;
8978;SDS011;4524;51.364;5.448;2023-03-23T05:04:33;4.77;;;2.43;;
8978;SDS011;4524;51.364;5.448;2023-03-23T05:07:10;2.17;;;1.80;;
8978;SDS011;4524;51.364;5.448;2023-03-23T05:09:46;4.73;;;2.10;;
8978;SDS011;4524;51.364;5.448;2023-03-23T05:12:14;3.90;;;2.20;;
8978;SDS011;4524;51.364;5.448;2023-03-23T05:14:51;6.00;;;2.57;;
8978;SDS011;4524;51.364;5.448;2023-03-23T05:17:20;4.93;;;2.10;;
8978;SDS011;4524;51.364;5.448;2023-03-23T05:19:50;3.43;;;2.40;;
8978;SDS011;4524;51.364;5.448;2023-03-23T05:22:32;4.70;;;2.20;;
8978;SDS011;4524;51.364;5.448;2023-03-23T05:25:04;4.97;;;2.50;;
8978;SDS011;4524;51.364;5.448;2023-03-23T05:27:35;4.77;;;2.70;;
8978;SDS011;4524;51.364;5.448;2023-03-23T05:30:17;4.33;;;2.20;;
8978;SDS011;4524;51.364;5.448;2023-03-23T05:32:44;3.93;;;2.37;;
8978;SDS011;4524;51.364;5.448;2023-03-23T05:35:45;6.77;;;2.50;;
8978;SDS011;4524;51.364;5.448;2023-03-23T05:38:15;5.83;;;2.73;;
8978;SDS011;4524;51.364;5.448;2023-03-23T05:40:44;4.60;;;2.30;;
8978;SDS011;4524;51.364;5.448;2023-03-23T05:43:17;4.63;;;2.67;;
8978;SDS011;4524;51.364;5.448;2023-03-23T05:46:07;6.10;;;2.40;;
8978;SDS011;4524;51.364;5.448;2023-03-23T05:48:36;4.47;;;2.60;;
8978;SDS011;4524;51.364;5.448;2023-03-23T05:51:04;5.87;;;2.50;;
8978;SDS011;4524;51.364;5.448;2023-03-23T05:53:35;7.83;;;2.40;;
8978;SDS011;4524;51.364;5.448;2023-03-23T05:56:04;5.90;;;2.80;;
8978;SDS011;4524;51.364;5.448;2023-03-23T05:58:50;10.57;;;2.77;;
8978;SDS011;4524;51.364;5.448;2023-03-23T06:01:18;5.73;;;2.97;;
8978;SDS011;4524;51.364;5.448;2023-03-23T06:03:45;4.13;;;2.33;;
8978;SDS011;4524;51.364;5.448;2023-03-23T06:06:19;5.90;;;2.57;;
8978;SDS011;4524;51.364;5.448;2023-03-23T06:09:03;5.57;;;2.20;;
8978;SDS011;4524;51.364;5.448;2023-03-23T06:11:54;6.00;;;2.30;;
8978;SDS011;4524;51.364;5.448;2023-03-23T06:14:30;8.97;;;2.57;;
8978;SDS011;4524;51.364;5.448;2023-03-23T06:16:58;5.57;;;2.23;;
8978;SDS011;4524;51.364;5.448;2023-03-23T06:19:25;5.23;;;2.10;;
8978;SDS011;4524;51.364;5.448;2023-03-23T06:22:00;7.43;;;2.55;;
8978;SDS011;4524;51.364;5.448;2023-03-23T06:24:48;5.50;;;2.70;;
8978;SDS011;4524;51.364;5.448;2023-03-23T06:27:22;4.60;;;2.03;;
8978;SDS011;4524;51.364;5.448;2023-03-23T06:29:49;3.87;;;1.90;;
8978;SDS011;4524;51.364;5.448;2023-03-23T06:32:16;6.17;;;2.00;;
8978;SDS011;4524;51.364;5.448;2023-03-23T06:34:43;7.47;;;2.20;;
8978;SDS011;4524;51.364;5.448;2023-03-23T06:37:30;4.47;;;2.00;;
8978;SDS011;4524;51.364;5.448;2023-03-23T06:40:04;3.80;;;1.97;;
8978;SDS011;4524;51.364;5.448;2023-03-23T06:42:41;6.97;;;2.17;;
8978;SDS011;4524;51.364;5.448;2023-03-23T06:45:28;3.47;;;1.80;;
8978;SDS011;4524;51.364;5.448;2023-03-23T06:48:14;4.27;;;2.13;;
8978;SDS011;4524;51.364;5.448;2023-03-23T06:50:43;4.27;;;2.27;;
8978;SDS011;4524;51.364;5.448;2023-03-23T06:53:11;5.60;;;2.50;;
8978;SDS011;4524;51.364;5.448;2023-03-23T06:55:39;4.27;;;2.27;;
8978;SDS011;4524;51.364;5.448;2023-03-23T06:58:09;7.20;;;2.77;;
8978;SDS011;4524;51.364;5.448;2023-03-23T07:00:36;3.97;;;2.10;;
8978;SDS011;4524;51.364;5.448;2023-03-23T07:03:04;3.77;;;1.90;;
8978;SDS011;4524;51.364;5.448;2023-03-23T07:05:32;5.10;;;2.00;;
8978;SDS011;4524;51.364;5.448;2023-03-23T07:07:59;4.77;;;1.97;;
8978;SDS011;4524;51.364;5.448;2023-03-23T07:10:33;3.70;;;2.20;;
8978;SDS011;4524;51.364;5.448;2023-03-23T07:13:02;4.20;;;1.80;;
8978;SDS011;4524;51.364;5.448;2023-03-23T07:15:40;5.23;;;2.00;;
8978;SDS011;4524;51.364;5.448;2023-03-23T07:18:07;5.27;;;2.00;;
8978;SDS011;4524;51.364;5.448;2023-03-23T07:20:40;5.80;;;2.23;;
8978;SDS011;4524;51.364;5.448;2023-03-23T07:23:07;4.50;;;1.90;;
8978;SDS011;4524;51.364;5.448;2023-03-23T07:25:40;9.47;;;2.83;;
8978;SDS011;4524;51.364;5.448;2023-03-23T07:28:10;7.20;;;2.17;;
8978;SDS011;4524;51.364;5.448;2023-03-23T07:30:37;6.90;;;2.70;;
8978;SDS011;4524;51.364;5.448;2023-03-23T07:33:07;4.63;;;2.00;;
8978;SDS011;4524;51.364;5.448;2023-03-23T07:35:35;8.20;;;2.50;;
8978;SDS011;4524;51.364;5.448;2023-03-23T07:38:12;3.53;;;1.93;;
8978;SDS011;4524;51.364;5.448;2023-03-23T07:40:42;3.17;;;2.10;;
8978;SDS011;4524;51.364;5.448;2023-03-23T07:43:13;7.37;;;2.50;;
8978;SDS011;4524;51.364;5.448;2023-03-23T07:46:00;5.57;;;2.67;;
8978;SDS011;4524;51.364;5.448;2023-03-23T07:48:54;5.13;;;1.90;;
8978;SDS011;4524;51.364;5.448;2023-03-23T07:51:25;4.23;;;1.80;;
8978;SDS011;4524;51.364;5.448;2023-03-23T07:53:53;2.93;;;1.00;;
8978;SDS011;4524;51.364;5.448;2023-03-23T07:56:40;3.27;;;1.40;;
8978;SDS011;4524;51.364;5.448;2023-03-23T07:59:20;2.97;;;1.47;;
8978;SDS011;4524;51.364;5.448;2023-03-23T08:01:48;4.27;;;1.60;;
8978;SDS011;4524;51.364;5.448;2023-03-23T08:04:41;3.23;;;1.80;;
8978;SDS011;4524;51.364;5.448;2023-03-23T08:07:28;3.20;;;1.53;;
8978;SDS011;4524;51.364;5.448;2023-03-23T08:10:01;3.23;;;1.53;;
8978;SDS011;4524;51.364;5.448;2023-03-23T08:12:42;3.10;;;1.57;;
8978;SDS011;4524;51.364;5.448;2023-03-23T08:15:22;3.33;;;1.40;;
8978;SDS011;4524;51.364;5.448;2023-03-23T08:18:04;2.03;;;1.20;;
8978;SDS011;4524;51.364;5.448;2023-03-23T08:20:56;4.73;;;1.40;;
8978;SDS011;4524;51.364;5.448;2023-03-23T08:23:33;2.90;;;1.30;;
8978;SDS011;4524;51.364;5.448;2023-03-23T08:26:12;2.87;;;1.30;;
8978;SDS011;4524;51.364;5.448;2023-03-23T08:29:00;2.87;;;1.17;;
8978;SDS011;4524;51.364;5.448;2023-03-23T08:31:51;2.33;;;1.00;;
8978;SDS011;4524;51.364;5.448;2023-03-23T08:34:46;3.00;;;1.20;;
8978;SDS011;4524;51.364;5.448;2023-03-23T08:37:43;2.67;;;1.17;;
8978;SDS011;4524;51.364;5.448;2023-03-23T08:40:20;4.47;;;1.00;;
8978;SDS011;4524;51.364;5.448;2023-03-23T08:43:03;5.30;;;1.30;;
8978;SDS011;4524;51.364;5.448;2023-03-23T08:45:49;3.50;;;1.07;;
8978;SDS011;4524;51.364;5.448;2023-03-23T08:48:39;1.47;;;1.10;;
8978;SDS011;4524;51.364;5.448;2023-03-23T08:51:26;1.50;;;1.00;;
8978;SDS011;4524;51.364;5.448;2023-03-23T08:54:15;2.93;;;1.10;;
8978;SDS011;4524;51.364;5.448;2023-03-23T08:57:02;2.83;;;1.20;;
8978;SDS011;4524;51.364;5.448;2023-03-23T08:59:42;3.03;;;1.40;;
8978;SDS011;4524;51.364;5.448;2023-03-23T09:02:29;3.27;;;1.30;;
8978;SDS011;4524;51.364;5.448;2023-03-23T09:05:12;3.73;;;1.47;;
8978;SDS011;4524;51.364;5.448;2023-03-23T09:08:02;1.87;;;0.97;;
8978;SDS011;4524;51.364;5.448;2023-03-23T09:10:30;2.10;;;1.30;;
8978;SDS011;4524;51.364;5.448;2023-03-23T09:12:57;1.50;;;1.20;;
8978;SDS011;4524;51.364;5.448;2023-03-23T09:15:24;2.30;;;1.13;;
8978;SDS011;4524;51.364;5.448;2023-03-23T09:17:51;3.53;;;1.33;;
8978;SDS011;4524;51.364;5.448;2023-03-23T09:20:20;2.23;;;1.30;;
8978;SDS011;4524;51.364;5.448;2023-03-23T09:22:49;3.00;;;1.10;;
8978;SDS011;4524;51.364;5.448;2023-03-23T09:25:19;1.37;;;1.23;;
8978;SDS011;4524;51.364;5.448;2023-03-23T09:27:48;4.50;;;1.23;;
8978;SDS011;4524;51.364;5.448;2023-03-23T09:30:19;3.63;;;1.40;;
8978;SDS011;4524;51.364;5.448;2023-03-23T09:32:46;2.90;;;1.43;;
8978;SDS011;4524;51.364;5.448;2023-03-23T09:35:14;3.57;;;1.30;;
8978;SDS011;4524;51.364;5.448;2023-03-23T09:37:42;3.30;;;1.20;;
8978;SDS011;4524;51.364;5.448;2023-03-23T09:40:11;2.80;;;1.17;;
8978;SDS011;4524;51.364;5.448;2023-03-23T09:42:45;1.67;;;1.10;;
8978;SDS011;4524;51.364;5.448;2023-03-23T09:45:36;1.90;;;0.93;;
8978;SDS011;4524;51.364;5.448;2023-03-23T09:48:19;6.33;;;1.40;;
8978;SDS011;4524;51.364;5.448;2023-03-23T09:50:57;3.20;;;1.73;;
8978;SDS011;4524;51.364;5.448;2023-03-23T09:53:28;2.33;;;1.20;;
8978;SDS011;4524;51.364;5.448;2023-03-23T09:56:00;4.03;;;1.47;;
8978;SDS011;4524;51.364;5.448;2023-03-23T09:58:30;3.40;;;1.50;;
8978;SDS011;4524;51.364;5.448;2023-03-23T10:01:03;2.87;;;1.20;;
8978;SDS011;4524;51.364;5.448;2023-03-23T10:03:36;3.60;;;1.37;;
8978;SDS011;4524;51.364;5.448;2023-03-23T10:06:07;3.00;;;1.50;;
8978;SDS011;4524;51.364;5.448;2023-03-23T10:08:36;2.30;;;1.30;;
8978;SDS011;4524;51.364;5.448;2023-03-23T10:11:11;3.33;;;1.37;;
8978;SDS011;4524;51.364;5.448;2023-03-23T10:13:52;5.43;;;1.50;;
8978;SDS011;4524;51.364;5.448;2023-03-23T10:16:31;4.27;;;1.70;;
8978;SDS011;4524;51.364;5.448;2023-03-23T10:19:02;4.83;;;1.50;;
8978;SDS011;4524;51.364;5.448;2023-03-23T10:21:37;5.13;;;1.57;;
8978;SDS011;4524;51.364;5.448;2023-03-23T10:24:26;5.17;;;1.63;;
8978;SDS011;4524;51.364;5.448;2023-03-23T10:27:02;4.17;;;2.13;;
8978;SDS011;4524;51.364;5.448;2023-03-23T10:29:38;5.50;;;1.67;;
8978;SDS011;4524;51.364;5.448;2023-03-23T10:32:11;3.13;;;1.47;;
8978;SDS011;4524;51.364;5.448;2023-03-23T10:34:41;5.80;;;1.60;;
8978;SDS011;4524;51.364;5.448;2023-03-23T10:37:12;3.10;;;1.50;;
8978;SDS011;4524;51.364;5.448;2023-03-23T10:39:45;5.43;;;2.07;;
8978;SDS011;4524;51.364;5.448;2023-03-23T10:42:24;4.80;;;2.00;;
8978;SDS011;4524;51.364;5.448;2023-03-23T10:44:54;4.90;;;1.73;;
8978;SDS011;4524;51.364;5.448;2023-03-23T10:47:22;4.93;;;1.53;;
8978;SDS011;4524;51.364;5.448;2023-03-23T10:49:50;3.40;;;1.50;;
8978;SDS011;4524;51.364;5.448;2023-03-23T10:52:24;2.30;;;1.60;;
8978;SDS011;4524;51.364;5.448;2023-03-23T10:54:58;3.53;;;1.70;;
8978;SDS011;4524;51.364;5.448;2023-03-23T10:57:30;2.70;;;1.60;;
8978;SDS011;4524;51.364;5.448;2023-03-23T11:00:02;3.90;;;1.47;;
8978;SDS011;4524;51.364;5.448;2023-03-23T11:02:35;4.53;;;1.73;;
8978;SDS011;4524;51.364;5.448;2023-03-23T11:05:07;3.23;;;1.50;;
8978;SDS011;4524;51.364;5.448;2023-03-23T11:07:47;3.40;;;1.50;;
8978;SDS011;4524;51.364;5.448;2023-03-23T11:10:17;1.77;;;1.40;;
8978;SDS011;4524;51.364;5.448;2023-03-23T11:12:49;4.17;;;1.40;;
8978;SDS011;4524;51.364;5.448;2023-03-23T11:15:23;2.77;;;1.40;;
8978;SDS011;4524;51.364;5.448;2023-03-23T11:17:55;3.67;;;1.50;;
8978;SDS011;4524;51.364;5.448;2023-03-23T11:20:23;4.00;;;1.47;;
8978;SDS011;4524;51.364;5.448;2023-03-23T11:22:52;2.87;;;1.57;;
8978;SDS011;4524;51.364;5.448;2023-03-23T11:25:19;1.63;;;1.37;;
8978;SDS011;4524;51.364;5.448;2023-03-23T11:27:46;3.07;;;1.40;;
8978;SDS011;4524;51.364;5.448;2023-03-23T11:30:18;2.53;;;1.40;;
8978;SDS011;4524;51.364;5.448;2023-03-23T11:32:53;2.93;;;1.40;;
8978;SDS011;4524;51.364;5.448;2023-03-23T11:35:22;2.43;;;1.13;;
8978;SDS011;4524;51.364;5.448;2023-03-23T11:37:52;3.07;;;1.40;;
8978;SDS011;4524;51.364;5.448;2023-03-23T11:40:22;2.37;;;1.40;;
8978;SDS011;4524;51.364;5.448;2023-03-23T11:42:56;2.50;;;1.50;;
8978;SDS011;4524;51.364;5.448;2023-03-23T11:45:30;3.43;;;1.50;;
8978;SDS011;4524;51.364;5.448;2023-03-23T11:48:01;3.57;;;1.90;;
8978;SDS011;4524;51.364;5.448;2023-03-23T11:50:48;5.17;;;1.70;;
8978;SDS011;4524;51.364;5.448;2023-03-23T11:53:22;4.83;;;1.63;;
8978;SDS011;4524;51.364;5.448;2023-03-23T11:55:59;4.57;;;1.63;;
8978;SDS011;4524;51.364;5.448;2023-03-23T11:58:32;5.10;;;1.60;;
8978;SDS011;4524;51.364;5.448;2023-03-23T12:01:05;3.33;;;1.50;;
8978;SDS011;4524;51.364;5.448;2023-03-23T12:03:43;3.03;;;1.80;;
8978;SDS011;4524;51.364;5.448;2023-03-23T12:06:23;3.53;;;1.90;;
8978;SDS011;4524;51.364;5.448;2023-03-23T12:09:01;4.33;;;1.83;;
8978;SDS011;4524;51.364;5.448;2023-03-23T12:11:37;3.77;;;1.70;;
8978;SDS011;4524;51.364;5.448;2023-03-23T12:14:14;6.00;;;1.80;;
8978;SDS011;4524;51.364;5.448;2023-03-23T12:16:52;3.33;;;1.70;;
8978;SDS011;4524;51.364;5.448;2023-03-23T12:19:27;4.47;;;1.80;;
8978;SDS011;4524;51.364;5.448;2023-03-23T12:22:03;3.93;;;2.10;;
8978;SDS011;4524;51.364;5.448;2023-03-23T12:24:40;4.53;;;1.77;;
8978;SDS011;4524;51.364;5.448;2023-03-23T12:27:18;6.93;;;1.87;;
8978;SDS011;4524;51.364;5.448;2023-03-23T12:30:04;4.47;;;1.63;;
8978;SDS011;4524;51.364;5.448;2023-03-23T12:32:42;4.37;;;2.10;;
8978;SDS011;4524;51.364;5.448;2023-03-23T12:35:21;3.60;;;1.60;;
8978;SDS011;4524;51.364;5.448;2023-03-23T12:38:03;5.07;;;2.20;;
8978;SDS011;4524;51.364;5.448;2023-03-23T12:40:46;3.63;;;1.70;;
8978;SDS011;4524;51.364;5.448;2023-03-23T12:43:24;5.80;;;2.10;;
8978;SDS011;4524;51.364;5.448;2023-03-23T12:48:56;6.60;;;2.20;;
8978;SDS011;4524;51.364;5.448;2023-03-23T12:51:27;4.80;;;1.80;;
8978;SDS011;4524;51.364;5.448;2023-03-23T12:54:01;5.67;;;1.80;;
8978;SDS011;4524;51.364;5.448;2023-03-23T12:56:33;4.47;;;2.20;;
8978;SDS011;4524;51.364;5.448;2023-03-23T12:59:06;6.40;;;2.07;;
8978;SDS011;4524;51.364;5.448;2023-03-23T13:01:40;5.57;;;1.97;;
8978;SDS011;4524;51.364;5.448;2023-03-23T13:04:11;6.47;;;2.30;;
8978;SDS011;4524;51.364;5.448;2023-03-23T13:06:42;4.37;;;2.03;;
8978;SDS011;4524;51.364;5.448;2023-03-23T13:09:12;4.73;;;1.90;;
8978;SDS011;4524;51.364;5.448;2023-03-23T13:11:43;7.70;;;1.93;;
8978;SDS011;4524;51.364;5.448;2023-03-23T13:14:24;5.10;;;1.90;;
8978;SDS011;4524;51.364;5.448;2023-03-23T13:17:10;6.67;;;1.90;;
8978;SDS011;4524;51.364;5.448;2023-03-23T13:19:59;8.03;;;2.13;;
8978;SDS011;4524;51.364;5.448;2023-03-23T13:22:37;6.27;;;1.93;;
8978;SDS011;4524;51.364;5.448;2023-03-23T13:25:13;4.63;;;1.87;;
8978;SDS011;4524;51.364;5.448;2023-03-23T13:27:44;6.93;;;2.10;;
8978;SDS011;4524;51.364;5.448;2023-03-23T13:30:22;7.00;;;2.43;;
8978;SDS011;4524;51.364;5.448;2023-03-23T13:32:49;5.50;;;2.67;;
8978;SDS011;4524;51.364;5.448;2023-03-23T13:35:19;7.47;;;3.67;;
8978;SDS011;4524;51.364;5.448;2023-03-23T13:37:47;4.90;;;3.20;;
8978;SDS011;4524;51.364;5.448;2023-03-23T13:40:20;5.30;;;3.23;;
8978;SDS011;4524;51.364;5.448;2023-03-23T13:42:53;5.17;;;2.73;;
8978;SDS011;4524;51.364;5.448;2023-03-23T13:45:22;4.50;;;2.83;;
8978;SDS011;4524;51.364;5.448;2023-03-23T13:48:01;6.73;;;3.17;;
8978;SDS011;4524;51.364;5.448;2023-03-23T13:50:31;6.77;;;2.63;;
8978;SDS011;4524;51.364;5.448;2023-03-23T13:53:12;4.40;;;2.37;;
8978;SDS011;4524;51.364;5.448;2023-03-23T13:55:41;3.97;;;1.97;;
8978;SDS011;4524;51.364;5.448;2023-03-23T13:58:21;3.57;;;2.00;;
8978;SDS011;4524;51.364;5.448;2023-03-23T14:00:50;4.80;;;2.03;;
8978;SDS011;4524;51.364;5.448;2023-03-23T14:03:36;4.43;;;1.77;;
8978;SDS011;4524;51.364;5.448;2023-03-23T14:06:10;4.20;;;1.77;;
8978;SDS011;4524;51.364;5.448;2023-03-23T14:09:04;5.03;;;2.10;;
8978;SDS011;4524;51.364;5.448;2023-03-23T14:11:34;5.17;;;1.90;;
8978;SDS011;4524;51.364;5.448;2023-03-23T14:14:13;7.83;;;1.93;;
8978;SDS011;4524;51.364;5.448;2023-03-23T14:16:48;4.97;;;2.20;;
8978;SDS011;4524;51.364;5.448;2023-03-23T14:19:18;6.53;;;1.90;;
8978;SDS011;4524;51.364;5.448;2023-03-23T14:21:53;5.23;;;1.80;;
8978;SDS011;4524;51.364;5.448;2023-03-23T14:24:21;5.83;;;1.97;;
8978;SDS011;4524;51.364;5.448;2023-03-23T14:26:51;4.20;;;1.77;;
8978;SDS011;4524;51.364;5.448;2023-03-23T14:29:19;5.90;;;1.87;;
8978;SDS011;4524;51.364;5.448;2023-03-23T14:31:49;6.87;;;2.20;;
8978;SDS011;4524;51.364;5.448;2023-03-23T14:34:20;5.67;;;2.30;;
8978;SDS011;4524;51.364;5.448;2023-03-23T14:36:50;6.03;;;2.47;;
8978;SDS011;4524;51.364;5.448;2023-03-23T14:39:21;6.13;;;2.50;;
8978;SDS011;4524;51.364;5.448;2023-03-23T14:41:50;5.63;;;2.67;;
8978;SDS011;4524;51.364;5.448;2023-03-23T14:44:21;5.17;;;2.30;;
8978;SDS011;4524;51.364;5.448;2023-03-23T14:46:49;9.40;;;2.40;;
8978;SDS011;4524;51.364;5.448;2023-03-23T14:49:18;6.33;;;2.60;;
8978;SDS011;4524;51.364;5.448;2023-03-23T14:51:50;6.63;;;2.30;;
8978;SDS011;4524;51.364;5.448;2023-03-23T14:54:22;5.83;;;2.20;;
8978;SDS011;4524;51.364;5.448;2023-03-23T14:56:51;6.97;;;2.30;;
8978;SDS011;4524;51.364;5.448;2023-03-23T14:59:18;5.87;;;2.30;;
8978;SDS011;4524;51.364;5.448;2023-03-23T15:01:46;4.63;;;2.10;;
8978;SDS011;4524;51.364;5.448;2023-03-23T15:04:15;6.10;;;2.40;;
8978;SDS011;4524;51.364;5.448;2023-03-23T15:06:46;6.57;;;2.23;;
8978;SDS011;4524;51.364;5.448;2023-03-23T15:09:17;6.17;;;2.50;;
8978;SDS011;4524;51.364;5.448;2023-03-23T15:11:52;6.17;;;2.10;;
8978;SDS011;4524;51.364;5.448;2023-03-23T15:14:22;5.50;;;2.13;;
8978;SDS011;4524;51.364;5.448;2023-03-23T15:16:52;6.30;;;1.97;;
8978;SDS011;4524;51.364;5.448;2023-03-23T15:19:22;4.80;;;2.43;;
8978;SDS011;4524;51.364;5.448;2023-03-23T15:21:52;7.77;;;2.87;;
8978;SDS011;4524;51.364;5.448;2023-03-23T15:24:27;5.23;;;2.50;;
8978;SDS011;4524;51.364;5.448;2023-03-23T15:27:13;5.37;;;2.50;;
8978;SDS011;4524;51.364;5.448;2023-03-23T15:29:45;6.03;;;2.53;;
8978;SDS011;4524;51.364;5.448;2023-03-23T15:32:21;6.20;;;2.30;;
8978;SDS011;4524;51.364;5.448;2023-03-23T15:34:49;7.03;;;2.13;;
8978;SDS011;4524;51.364;5.448;2023-03-23T15:37:18;7.43;;;2.67;;
8978;SDS011;4524;51.364;5.448;2023-03-23T15:39:47;6.30;;;2.37;;
8978;SDS011;4524;51.364;5.448;2023-03-23T15:42:22;5.27;;;2.30;;
8978;SDS011;4524;51.364;5.448;2023-03-23T15:44:54;4.87;;;2.00;;
8978;SDS011;4524;51.364;5.448;2023-03-23T15:47:32;5.10;;;2.00;;
8978;SDS011;4524;51.364;5.448;2023-03-23T15:50:03;4.77;;;1.90;;
8978;SDS011;4524;51.364;5.448;2023-03-23T15:52:34;5.00;;;1.97;;
8978;SDS011;4524;51.364;5.448;2023-03-23T15:55:01;4.23;;;2.00;;
8978;SDS011;4524;51.364;5.448;2023-03-23T15:57:29;4.17;;;2.20;;
8978;SDS011;4524;51.364;5.448;2023-03-23T15:59:56;6.10;;;2.23;;
8978;SDS011;4524;51.364;5.448;2023-03-23T16:02:24;3.50;;;1.97;;